x

New Dungeness - 17 Nm Ne Of Port Angeles, Wa (46088) Wave Buoy

8:20pm - Thu 25th May 2017 All times are PDT. -7 hours from GMT.

  • Sig Wave height 1.0ft
  • Swell Direction
  • Peak Period 3s
  • Average Period 3s
  • Wind
    13mph, 18mph gusts
  • Sea Temp 50°f
  • 空気 Temp 52°f
  • Sea Pressure 1010.3mb
  • New Dungeness - 17 Nm Ne Of Port Angeles, Wa
  • New Dungeness - 17 Nm Ne Of Port Angeles, Wa

More Historic Weather Station data

Upgrade to MSW Pro to gain access to the past 30 days of data for over 8000 Wavebouys and Weather Stations around the globe.

Join Pro

Comparision Forecast

View Surf forecast
   
Thu 05/25 8:20pm 1ft 3s 3s 13 18 mph 1010.3mb 50f 52f
7:50pm 1ft 3s 3s 13 16 mph 1010.4mb 50f 53f
7:20pm 1ft 2s 3s 13 13 mph 1010.2mb 50f 53f
6:50pm 0.7ft  -  5s 16 18 mph 1010mb 51f 54f
6:20pm 0.7ft  -  4s 11 13 mph 1010.2mb 51f 53f
5:50pm 0.7ft  -  4s 9 11 mph 1010.2mb 51f 55f
5:20pm 0.7ft  -  5s 7 7 mph 1010.1mb 51f 54f
4:50pm 0.7ft  -  5s 7 9 mph 1010.3mb 50f 54f
4:20pm 0.7ft  -  4s 7 7 mph 1010.4mb 51f 54f
3:50pm 1.3ft 5s 4s 4 7 mph 1010.8mb 51f 54f
3:20pm 1.6ft 6s 5s 7 9 mph 1011.2mb 52f 53f
2:50pm 2ft 8s 6s 7 7 mph 1011.3mb 51f 53f
2:20pm 3.5ft 8s 7s 4 7 mph 1011.6mb 52f 53f
1:50pm 3.5ft 8s 8s 4 4 mph 1011.9mb 51f 53f
1:20pm 3.5ft 9s 8s 4 4 mph 1012.1mb 51f 53f
12:50pm 3.5ft 10s 9s 4 4 mph 1012.3mb 51f 52f
12:20pm 2.5ft 10s 8s 4 4 mph 1012.5mb 50f 52f
11:50am 2.5ft 9s 8s 2 2 mph 1012.6mb 50f 54f
11:20am 1.3ft 9s 7s 2 2 mph 1012.7mb 52f 53f
10:50am 1.3ft 10s 8s 2 4 mph 1012.7mb 52f 53f
10:20am 1.6ft 11s 9s 2 2 mph 1012.8mb 52f 52f
9:50am 1ft 11s 7s 4 4 mph 1013mb 50f 52f
9:20am 0.7ft  -  6s 4 7 mph 1013mb 50f 51f
8:50am 0.7ft  -  6s 4 4 mph 1013.1mb 50f 52f
8:20am 0.7ft  -  5s  -  2 mph 1013mb 50f 51f
7:50am 0.7ft  -  4s  -  2 mph 1013mb 50f 50f
7:20am 0.3ft  -  4s  -  2 mph 1012.9mb 50f 50f
6:50am 0.7ft  -  5s  -  0 mph 1012.8mb 49f 50f
6:20am 0.3ft  -  5s  -  0 mph 1012.8mb 49f 49f
5:50am 0.3ft  -  5s  -  0 mph 1012.6mb 49f 49f
5:20am 0.7ft  -  5s 2 2 mph 1012.5mb 49f 49f
4:50am 0.7ft  -  5s 4 4 mph 1012.5mb 50f 49f
4:20am 0.7ft  -  4s 2 2 mph 1012.5mb 50f 50f
3:50am 0.7ft  -  4s 4 4 mph 1012.4mb 50f 50f
3:20am 0.7ft  -  4s 7 9 mph 1012.2mb 50f 50f
2:50am 0.7ft  -  5s 9 9 mph 1012.3mb 50f 50f
2:20am 1ft 10s 5s 9 9 mph 1012.4mb 50f 50f
1:50am 0.7ft  -  6s 11 11 mph 1012.4mb 50f 50f
1:20am 0.7ft  -  5s 9 11 mph 1012.5mb 50f 51f
12:50am 0.7ft  -  5s 7 7 mph 1012.6mb 50f 51f
12:20am 0.7ft  -  4s 4 4 mph 1012.9mb 50f 51f
Wed 05/24 11:50pm 0.7ft  -  4s 4 4 mph 1012.9mb 50f 50f
11:20pm 1ft 4s 4s 7 7 mph 1013.1mb 50f 51f
10:50pm 0.7ft  -  5s 4 7 mph 1013.3mb 50f 51f
10:20pm 0.7ft  -  5s 2 2 mph 1013.5mb 50f 51f
9:50pm 0.7ft  -  4s 2 2 mph 1013.5mb 50f 51f
9:20pm 0.7ft  -  4s 2 2 mph 1013.5mb 50f 52f
8:50pm 0.7ft  -  3s 2 2 mph 1013.5mb 51f 52f
8:20pm 0.7ft  -  4s 2 2 mph 1013.5mb 51f 53f
7:50pm 0.7ft  -  4s 2 4 mph 1013.5mb 51f 53f
7:20pm 0.7ft  -  4s  -  2 mph 1013.6mb 51f 53f
6:50pm 1ft 4s 4s 4 4 mph 1013.6mb 51f 53f
6:20pm 1ft 5s 4s 4 7 mph 1013.7mb 51f 53f
5:50pm 1ft 8s 4s 9 9 mph 1013.9mb 51f 53f
5:20pm 1ft 4s 3s 7 11 mph 1014mb 51f 53f
4:50pm 1ft 3s 3s 2 2 mph 1014.1mb 50f 55f
4:20pm 1.3ft 3s 3s 4 7 mph 1014.3mb 49f 55f
3:50pm 1.6ft 3s 3s 7 9 mph 1014.4mb 50f 55f
3:20pm 2.5ft 3s 4s 11 13 mph 1014.6mb 50f 54f
2:50pm 2.5ft 6s 4s 11 13 mph 1014.6mb 50f 53f
2:20pm 3ft 7s 4s 16 18 mph 1014.6mb 50f 54f
1:50pm 3.5ft 4s 4s 16 18 mph 1014.6mb 50f 53f
1:20pm 3.5ft 5s 4s 18 20 mph 1014.6mb 50f 53f
12:50pm 3.5ft 6s 4s 18 22 mph 1014.7mb 50f 52f
12:20pm 4ft 8s 5s 18 22 mph 1015.3mb 50f 52f
11:50am 4ft 8s 5s 18 20 mph 1015.7mb 50f 52f
11:20am 3.5ft 8s 5s 18 22 mph 1015.7mb 50f 52f
10:50am 3ft 6s 5s 16 20 mph 1015.9mb 50f 52f
10:20am 3ft 6s 5s 16 18 mph 1016.3mb 50f 51f
9:50am 2.5ft 6s 5s 13 18 mph 1016.6mb 50f 51f
9:20am 2.5ft 6s 5s 13 18 mph 1016.4mb 49f 51f
8:50am 2.5ft 6s 5s 16 20 mph 1016.3mb 49f 50f
8:20am 2.5ft 6s 5s 18 22 mph 1016.4mb 49f 50f
7:50am 2.5ft 6s 5s 20 25 mph 1016.5mb 49f 50f
7:20am 3ft 6s 5s 20 25 mph 1016.6mb 49f 50f
6:50am 3.5ft 5s 5s 22 27 mph 1016.3mb 49f 51f
6:20am 3.5ft 5s 4s 22 29 mph 1016.1mb 49f 51f
5:50am 3.5ft 5s 4s 22 29 mph 1016mb 49f 51f
5:20am 3.5ft 5s 4s 22 29 mph 1015.9mb 49f 50f
4:50am 3.5ft 4s 4s 27 36 mph 1015.8mb 49f 51f
4:20am 3.5ft 4s 4s 25 31 mph 1016mb 49f 50f
3:50am 3ft 4s 4s 25 31 mph 1016mb 49f 50f
3:20am 3.5ft 4s 4s 29 34 mph 1016.3mb 49f 50f
2:50am 4ft 5s 4s 29 40 mph 1016.1mb 49f 50f
2:20am 4.5ft 5s 4s 29 38 mph 1016.2mb 49f 50f
1:50am 4.5ft 5s 4s 31 38 mph 1016.4mb 49f 51f
1:20am 5ft 5s 4s 31 40 mph 1016.4mb 49f 51f
12:50am 5.5ft 5s 5s 29 36 mph 1016.9mb 49f 51f
12:20am 5.5ft 6s 5s 27 34 mph 1017mb 49f 51f
Tue 05/23 11:50pm 5ft 6s 5s 29 36 mph 1016.9mb 49f 51f
11:20pm 6ft 6s 5s 29 36 mph 1016.8mb 49f 51f
10:50pm 6ft 6s 5s 31 36 mph 1016.5mb 49f 51f
10:20pm 7ft 6s 5s 34 40 mph 1015.8mb 49f 51f
9:50pm 7ft 6s 5s 34 43 mph 1015.6mb 49f 51f
9:20pm 6.5ft 6s 5s 34 45 mph 1015.4mb 50f 51f
8:50pm 6ft 6s 5s 36 45 mph 1014.5mb 50f 51f
8:20pm 6ft 6s 5s 31 40 mph 1014.5mb 50f 52f
7:50pm 5.5ft 6s 5s 36 45 mph 1014.3mb 50f 52f
7:20pm 5.5ft 6s 5s 38 45 mph 1014.1mb 50f 52f
6:50pm 5ft 5s 4s 38 47 mph 1014mb 50f 53f
6:20pm 5ft 5s 4s 36 45 mph 1014.2mb 50f 53f
5:50pm 5ft 5s 4s 36 45 mph 1014.5mb 50f 53f
5:20pm 5ft 5s 4s 34 40 mph 1014.6mb 50f 53f
4:50pm 5.5ft 5s  -  43 49 mph 1013.1mb 50f 53f
4:20pm 5ft 5s 4s 38 47 mph 1013.2mb 50f 54f
3:50pm 5.5ft 5s 4s 40 47 mph 1013mb 50f 54f
3:20pm 5ft 5s 4s 38 45 mph 1013mb 50f 55f
2:50pm 4.5ft 5s 4s 34 40 mph 1013.1mb 50f 55f
2:20pm 4.5ft 5s 4s 31 38 mph 1013.3mb 50f 57f
1:50pm 5ft 5s 4s 31 38 mph 1013.3mb 50f 58f
1:20pm 5.5ft 5s 5s 31 36 mph 1013.5mb 50f 56f
12:50pm 6ft 6s 5s 29 34 mph 1014.1mb 50f 56f
12:20pm 6.5ft 6s 5s 31 40 mph 1013.9mb 50f 55f
11:50am 6ft 6s 5s 27 31 mph 1014.7mb 50f 54f
11:20am 5ft 6s 5s 27 31 mph 1014.6mb 50f 54f
10:50am 3.5ft 6s 5s 20 29 mph 1014.8mb 50f 54f
10:20am 3ft 6s 5s 20 27 mph 1014.9mb 50f 55f
9:50am 3ft 5s 4s 16 22 mph 1015.3mb 50f 54f
9:20am 2.5ft 5s 5s 22 29 mph 1015.1mb 50f 55f
8:50am 2ft 5s 5s 9 13 mph 1015.8mb 50f 53f
8:20am 1.6ft 5s 5s 20 25 mph 1015.6mb 50f 52f
7:50am 1.3ft 5s 5s 11 16 mph 1016mb 50f 52f
7:20am 1.6ft 5s 4s 11 13 mph 1016.2mb 50f 53f
6:50am 1.3ft 4s 4s 11 13 mph 1016.2mb 50f 53f
6:20am 1ft 4s 4s 16 18 mph 1015.9mb 50f 53f
5:50am 1ft 4s 4s 7 9 mph 1016mb 50f 53f
5:20am 1.3ft 4s 4s 13 18 mph 1015.7mb 50f 55f
4:50am 1.3ft 4s 3s 16 18 mph 1015.5mb 50f 52f
4:20am 1.3ft 3s 3s 11 13 mph 1015.6mb 50f 53f
3:50am 1.3ft 3s 3s 13 16 mph 1015.5mb 50f 52f
3:20am 1.3ft 3s 3s 9 9 mph 1015.5mb 50f 52f
2:50am 1.6ft 3s 3s 9 9 mph 1015.5mb 50f 53f
2:20am 1.6ft 3s 3s 9 11 mph 1015.6mb 50f 55f
1:50am 1.6ft 3s 3s 16 18 mph 1015.4mb 49f 54f
1:20am 1.6ft 3s 3s 18 20 mph 1015.6mb 49f 54f
12:50am 1.6ft 3s 3s 16 18 mph 1015.7mb 50f 54f
12:20am 1.3ft 3s 3s 16 18 mph 1015.8mb 50f 55f
Mon 05/22 11:50pm 1.6ft 3s 3s 11 13 mph 1015.9mb 50f 55f
11:20pm 1.6ft 4s 3s 11 13 mph 1016.1mb 50f 55f
10:50pm 1.6ft 3s 3s 13 16 mph 1016.1mb 50f 56f
10:20pm 1.3ft 4s 3s 16 18 mph 1016.3mb 50f 55f
9:50pm 1.3ft 3s 3s 18 20 mph 1016.4mb 51f 54f
9:20pm 1ft 3s 3s 16 18 mph 1016.6mb 51f 54f
8:50pm 0.7ft  -  3s 13 16 mph 1016.6mb 51f 55f
8:20pm 0.7ft  -  5s 16 16 mph 1016.8mb 51f 56f
7:50pm 0.3ft  -  5s 11 11 mph 1017.1mb 52f 58f
7:20pm 0.3ft  -  5s 7 7 mph 1017.2mb 52f 58f
6:50pm 0.7ft  -  4s 4 7 mph 1017.1mb 51f 57f
6:20pm 0.7ft  -  5s 7 7 mph 1017.3mb 52f 58f
5:50pm 0.7ft  -  5s 4 4 mph 1017.5mb 51f 59f
5:20pm 0.3ft  -  4s 4 7 mph 1018mb 53f 59f
4:50pm 0.3ft  -  4s 4 7 mph 1018.2mb 54f 59f
4:20pm 0.3ft  -  4s 7 7 mph 1018.3mb 53f 64f
3:50pm 0.7ft  -  4s 4 4 mph 1018.7mb 53f 60f
3:20pm 0.7ft  -  4s 7 7 mph 1019.2mb 52f 61f
2:50pm 0.7ft  -  4s 4 7 mph 1019.5mb 53f 61f
2:20pm 0.7ft  -  4s 7 7 mph 1019.7mb 52f 59f
1:50pm 1ft 5s 4s 2 4 mph 1019.9mb 51f 57f
1:20pm 1ft 5s 5s 4 4 mph 1020.2mb 51f 60f
12:50pm 1.3ft 7s 5s 2 4 mph 1020.4mb 51f 58f
12:20pm 1.3ft 8s 6s 4 4 mph 1020.9mb 51f 57f
11:50am 1ft 8s 6s 4 4 mph 1021.3mb 51f 57f
11:20am 1.3ft 8s 6s 4 7 mph 1021.4mb 51f 56f
10:50am 1ft 8s 7s 4 9 mph 1021.8mb 50f 57f
10:20am 0.7ft  -  6s 2 4 mph 1021.9mb 50f 56f
9:50am 0.7ft  -  6s 4 4 mph 1021.9mb 51f 55f
9:20am 0.3ft  -  5s 7 7 mph 1022.1mb 50f 54f
8:50am 0.3ft  -  7s 7 7 mph 1022.1mb 50f 54f
8:20am 0.3ft  -  6s 4 4 mph 1021.9mb 50f 56f
7:50am 0.3ft  -  6s 2 2 mph 1021.8mb 50f 55f
7:20am 0.3ft  -  5s 2 4 mph 1021.8mb 49f 54f
6:50am 0.3ft  -  4s 4 4 mph 1021.9mb 50f 54f
6:20am 0.3ft  -  3s 4 4 mph 1021.7mb 50f 53f
5:50am 0.3ft  -  3s 4 7 mph 1021.7mb 50f 52f
5:20am 0.3ft  -  4s 2 4 mph 1021.4mb 50f 51f
4:50am 0.3ft  -  4s 4 4 mph 1021.6mb 50f 52f
4:20am 0.3ft  -  3s 4 4 mph 1021.7mb 50f 53f